createdAt,value
2022-12-29T00:01:23.907Z,96.04
2022-12-29T00:03:52.853Z,96.75
2022-12-29T00:06:21.615Z,95.67
2022-12-29T00:08:52.237Z,95.99
2022-12-29T00:11:23.999Z,95.70
2022-12-29T00:14:06.694Z,95.00
2022-12-29T00:16:38.343Z,95.10
2022-12-29T00:19:27.500Z,95.07
2022-12-29T00:22:09.291Z,94.91
2022-12-29T00:24:53.044Z,94.54
2022-12-29T00:27:44.056Z,94.73
2022-12-29T00:30:27.953Z,94.34
2022-12-29T00:33:09.731Z,94.53
2022-12-29T00:35:44.902Z,93.70
2022-12-29T00:38:27.610Z,94.13
2022-12-29T00:41:11.416Z,93.87
2022-12-29T00:43:53.203Z,93.67
2022-12-29T00:46:21.990Z,92.98
2022-12-29T00:49:03.812Z,93.25
2022-12-29T00:51:32.482Z,93.32
2022-12-29T00:54:01.179Z,93.52
2022-12-29T00:56:31.783Z,93.32
2022-12-29T00:59:03.325Z,92.74
2022-12-29T01:01:32.735Z,92.92
2022-12-29T01:04:03.962Z,92.88
2022-12-29T01:06:33.911Z,92.50
2022-12-29T01:09:15.762Z,92.95
2022-12-29T01:11:47.083Z,92.37
2022-12-29T01:14:16.053Z,93.42
2022-12-29T01:16:46.859Z,93.43
2022-12-29T01:19:16.580Z,93.88
2022-12-29T01:21:47.000Z,94.16
2022-12-29T01:24:16.429Z,94.50
2022-12-29T01:26:48.840Z,95.07
2022-12-29T01:29:17.373Z,95.30
2022-12-29T01:31:46.913Z,95.76
2022-12-29T01:34:15.871Z,95.69
2022-12-29T01:36:44.865Z,95.37
2022-12-29T01:39:14.489Z,96.03
2022-12-29T01:41:43.672Z,95.79
2022-12-29T01:44:55.297Z,96.36
2022-12-29T01:47:37.376Z,95.74
2022-12-29T01:50:09.473Z,96.11
2022-12-29T01:52:43.375Z,96.31
2022-12-29T01:55:13.519Z,95.71
2022-12-29T01:57:48.375Z,96.16
2022-12-29T02:00:19.605Z,95.93
2022-12-29T02:02:53.215Z,95.80
2022-12-29T02:05:31.191Z,96.14
2022-12-29T02:08:00.119Z,95.36
2022-12-29T02:10:33.246Z,95.77
2022-12-29T02:13:02.528Z,95.61
2022-12-29T02:15:47.279Z,95.99
2022-12-29T02:18:30.237Z,95.10
2022-12-29T02:21:46.304Z,95.71
2022-12-29T02:24:56.808Z,95.18
2022-12-29T02:28:05.749Z,94.91
2022-12-29T02:30:48.024Z,95.26
2022-12-29T02:33:43.417Z,95.29
2022-12-29T02:36:27.292Z,95.10
2022-12-29T02:39:08.404Z,94.67
2022-12-29T02:41:48.518Z,95.22
2022-12-29T02:44:30.148Z,94.63
2022-12-29T02:47:07.740Z,94.43
2022-12-29T02:49:42.546Z,93.85
2022-12-29T02:52:19.044Z,93.57
2022-12-29T02:54:48.566Z,93.56
2022-12-29T02:57:33.509Z,93.58
2022-12-29T03:00:08.387Z,93.55
2022-12-29T03:03:14.717Z,92.99
2022-12-29T03:06:08.610Z,92.82
2022-12-29T03:08:48.115Z,92.64
2022-12-29T03:11:30.396Z,92.54
2022-12-29T03:14:20.858Z,91.67
2022-12-29T03:16:54.567Z,91.66
2022-12-29T03:19:30.909Z,91.26
2022-12-29T03:22:16.742Z,91.32
2022-12-29T03:24:50.948Z,91.35
2022-12-29T03:27:25.813Z,91.15
2022-12-29T03:29:59.775Z,91.50
2022-12-29T03:32:34.395Z,91.11
2022-12-29T03:35:07.064Z,91.83
2022-12-29T03:37:42.103Z,91.81
2022-12-29T03:40:12.070Z,92.23
2022-12-29T03:42:42.046Z,91.76
2022-12-29T03:45:13.205Z,91.31
2022-12-29T03:47:41.912Z,91.15
2022-12-29T03:50:15.273Z,91.92
2022-12-29T03:52:43.984Z,92.06
2022-12-29T03:55:13.027Z,91.84
2022-12-29T03:57:41.839Z,92.12
2022-12-29T04:00:13.031Z,92.42
2022-12-29T04:02:41.894Z,92.02
2022-12-29T04:05:12.759Z,91.60
2022-12-29T04:07:41.393Z,91.84
2022-12-29T04:10:11.193Z,92.36
2022-12-29T04:12:41.977Z,92.06
2022-12-29T04:15:12.297Z,91.49
2022-12-29T04:17:40.898Z,91.97
2022-12-29T04:20:26.003Z,91.43
2022-12-29T04:23:02.347Z,91.22
2022-12-29T04:25:31.145Z,90.82
2022-12-29T04:27:59.832Z,91.14
2022-12-29T04:30:28.634Z,90.50
2022-12-29T04:32:57.418Z,89.61
2022-12-29T04:35:27.962Z,88.67
2022-12-29T04:37:56.708Z,88.34
2022-12-29T04:40:25.699Z,88.44
2022-12-29T04:42:54.423Z,87.99
2022-12-29T04:45:23.110Z,88.44
2022-12-29T04:47:51.761Z,88.23
2022-12-29T04:50:20.691Z,88.57
2022-12-29T04:52:51.242Z,88.64
2022-12-29T04:55:20.250Z,88.42
2022-12-29T04:57:48.911Z,88.69
2022-12-29T05:00:17.979Z,89.18
2022-12-29T05:02:47.652Z,88.63
2022-12-29T05:05:16.589Z,88.82
2022-12-29T05:07:45.275Z,89.46
2022-12-29T05:10:16.025Z,89.59
2022-12-29T05:12:44.778Z,89.79
2022-12-29T05:15:14.297Z,89.32
2022-12-29T05:17:43.273Z,89.15
2022-12-29T05:20:12.885Z,89.08
2022-12-29T05:22:41.557Z,89.67
2022-12-29T05:25:11.633Z,89.46
2022-12-29T05:27:42.431Z,90.16
2022-12-29T05:30:13.303Z,90.41
2022-12-29T05:32:41.980Z,90.69
2022-12-29T05:35:11.388Z,91.51
2022-12-29T05:37:39.966Z,91.01
2022-12-29T05:40:10.786Z,91.39
2022-12-29T05:42:41.766Z,91.42
2022-12-29T05:45:11.953Z,91.28
2022-12-29T05:47:40.588Z,92.23
2022-12-29T05:50:10.411Z,92.38
2022-12-29T05:52:39.095Z,92.34
2022-12-29T05:55:09.738Z,91.37
2022-12-29T05:57:38.571Z,91.92
2022-12-29T06:00:12.613Z,91.65
2022-12-29T06:02:41.307Z,91.39
2022-12-29T06:05:11.350Z,91.28
2022-12-29T06:07:40.040Z,91.97
2022-12-29T06:10:10.133Z,91.52
2022-12-29T06:12:38.780Z,91.37
2022-12-29T06:15:10.937Z,91.68
2022-12-29T06:17:39.576Z,91.49
2022-12-29T06:20:10.616Z,91.75
2022-12-29T06:22:39.764Z,92.05
2022-12-29T06:25:09.197Z,92.25
2022-12-29T06:27:37.862Z,91.47
2022-12-29T06:30:10.383Z,92.05
2022-12-29T06:32:39.367Z,91.40
2022-12-29T06:35:09.154Z,92.25
2022-12-29T06:37:37.952Z,91.41
2022-12-29T06:40:08.420Z,91.53
2022-12-29T06:42:37.058Z,91.48
2022-12-29T06:45:07.740Z,91.46
2022-12-29T06:47:38.753Z,90.95
2022-12-29T06:50:08.851Z,90.65
2022-12-29T06:52:37.521Z,89.53
2022-12-29T06:55:07.391Z,89.73
2022-12-29T06:57:37.081Z,89.18
2022-12-29T07:00:07.095Z,89.00
2022-12-29T07:02:37.719Z,88.83
2022-12-29T07:05:08.028Z,88.71
2022-12-29T07:07:36.699Z,87.96
2022-12-29T07:10:06.261Z,88.06
2022-12-29T07:12:34.981Z,87.90
2022-12-29T07:15:03.664Z,88.28
2022-12-29T07:17:32.324Z,88.21
2022-12-29T07:20:02.856Z,88.58
2022-12-29T07:22:31.638Z,89.16
2022-12-29T07:25:00.249Z,88.99
2022-12-29T07:27:29.028Z,89.63
2022-12-29T07:29:57.806Z,89.27
2022-12-29T07:32:26.672Z,89.00
2022-12-29T07:34:55.445Z,89.29
2022-12-29T07:37:26.099Z,89.69
2022-12-29T07:39:54.804Z,89.92
2022-12-29T07:42:23.579Z,89.90
2022-12-29T07:44:52.247Z,90.12
2022-12-29T07:47:21.146Z,89.48
2022-12-29T07:49:49.840Z,89.67
2022-12-29T07:52:18.511Z,89.38
2022-12-29T07:54:49.082Z,88.92
2022-12-29T07:57:17.841Z,89.21
2022-12-29T07:59:46.592Z,88.89
2022-12-29T08:02:15.316Z,89.56
2022-12-29T08:04:44.062Z,88.61
2022-12-29T08:07:12.720Z,88.46
2022-12-29T08:09:41.437Z,87.93
2022-12-29T08:12:13.135Z,86.89
2022-12-29T08:14:41.823Z,86.07
2022-12-29T08:17:10.518Z,86.14
2022-12-29T08:19:39.653Z,86.55
2022-12-29T08:22:08.375Z,85.13
2022-12-29T08:24:37.071Z,85.30
2022-12-29T08:27:15.875Z,84.73
2022-12-29T08:29:50.772Z,84.52
2022-12-29T08:32:19.654Z,84.18
2022-12-29T08:34:48.453Z,84.54
2022-12-29T08:37:17.116Z,84.99
2022-12-29T08:39:45.882Z,85.01
2022-12-29T08:42:14.570Z,85.49
2022-12-29T08:44:43.226Z,85.41
2022-12-29T08:47:14.673Z,85.55
2022-12-29T08:49:43.371Z,85.62
2022-12-29T08:52:12.065Z,86.03
2022-12-29T08:54:41.398Z,85.91
2022-12-29T08:57:10.188Z,86.00
2022-12-29T08:59:38.831Z,86.19
2022-12-29T09:02:07.993Z,86.56
2022-12-29T09:04:38.834Z,86.78
2022-12-29T09:07:08.014Z,86.31
2022-12-29T09:09:36.824Z,87.09
2022-12-29T09:12:05.851Z,87.32
2022-12-29T09:14:34.585Z,87.71
2022-12-29T09:17:16.349Z,87.87
2022-12-29T09:19:46.921Z,88.18
2022-12-29T09:22:15.572Z,89.34
2022-12-29T09:24:44.195Z,89.33
2022-12-29T09:27:12.959Z,89.95
2022-12-29T09:29:41.611Z,90.10
2022-12-29T09:32:13.874Z,90.95
2022-12-29T09:34:47.796Z,90.62
2022-12-29T09:37:16.656Z,91.36
2022-12-29T09:39:49.172Z,91.68
2022-12-29T09:42:29.916Z,92.02
2022-12-29T09:45:14.649Z,92.29
2022-12-29T09:47:45.176Z,92.58
2022-12-29T09:50:27.489Z,92.65
2022-12-29T09:53:03.954Z,92.63
2022-12-29T09:55:39.362Z,92.91
2022-12-29T09:58:16.388Z,93.78
2022-12-29T10:00:55.687Z,93.37
2022-12-29T10:03:29.630Z,93.45
2022-12-29T10:06:14.192Z,94.08
2022-12-29T10:08:52.209Z,93.57
2022-12-29T10:11:35.864Z,93.98
2022-12-29T10:14:20.217Z,94.27
2022-12-29T10:17:01.012Z,94.16
2022-12-29T10:19:51.633Z,93.98
2022-12-29T10:22:41.121Z,94.58
2022-12-29T10:25:18.940Z,93.87
2022-12-29T10:27:51.308Z,94.20
2022-12-29T10:30:20.629Z,94.08
2022-12-29T10:32:55.510Z,94.65
2022-12-29T10:35:26.387Z,93.54
2022-12-29T10:38:04.718Z,93.92
2022-12-29T10:40:42.296Z,93.85
2022-12-29T10:43:26.867Z,93.58
2022-12-29T10:45:59.064Z,93.59
2022-12-29T10:48:32.365Z,93.93
2022-12-29T10:51:03.757Z,93.86
2022-12-29T10:53:42.905Z,93.62
2022-12-29T10:56:24.014Z,93.48
2022-12-29T10:58:53.795Z,93.10
2022-12-29T11:01:22.828Z,93.55
2022-12-29T11:04:05.289Z,94.05
2022-12-29T11:06:34.351Z,92.56
2022-12-29T11:09:16.143Z,91.48
2022-12-29T11:11:45.503Z,91.14
2022-12-29T11:14:20.127Z,88.66
2022-12-29T11:17:00.280Z,88.69
2022-12-29T11:19:33.001Z,88.40
2022-12-29T11:22:23.062Z,87.52
2022-12-29T11:24:55.573Z,87.28
2022-12-29T11:27:27.237Z,86.54
2022-12-29T11:29:57.094Z,85.97
2022-12-29T11:32:30.365Z,85.70
2022-12-29T11:35:01.329Z,85.65
2022-12-29T11:37:35.579Z,84.04
2022-12-29T11:40:18.545Z,83.31
2022-12-29T11:42:53.958Z,82.46
2022-12-29T11:45:26.387Z,81.86
2022-12-29T11:47:58.576Z,82.02
2022-12-29T11:50:30.068Z,81.87
2022-12-29T11:53:03.868Z,83.03
2022-12-29T11:55:35.109Z,83.00
2022-12-29T11:58:06.524Z,83.73
2022-12-29T12:00:41.381Z,83.34
2022-12-29T12:03:19.056Z,83.92
2022-12-29T12:05:53.778Z,84.46
2022-12-29T12:08:36.323Z,83.60
2022-12-29T12:11:14.755Z,83.18
2022-12-29T12:13:55.159Z,83.98
2022-12-29T12:16:29.851Z,83.70
2022-12-29T12:19:04.379Z,83.74
2022-12-29T12:21:45.425Z,83.28
2022-12-29T12:24:41.563Z,83.35
2022-12-29T12:27:21.712Z,83.78
2022-12-29T12:30:00.549Z,83.01
2022-12-29T12:32:43.284Z,83.50
2022-12-29T12:35:21.332Z,84.26
2022-12-29T12:38:09.464Z,84.35
2022-12-29T12:41:02.414Z,83.75
2022-12-29T12:43:45.247Z,84.53
2022-12-29T12:46:40.039Z,84.39
2022-12-29T12:49:32.970Z,83.84
2022-12-29T12:52:13.967Z,84.11
2022-12-29T12:55:09.529Z,83.36
2022-12-29T12:57:54.066Z,82.76
2022-12-29T13:00:25.491Z,82.40
2022-12-29T13:03:10.714Z,82.26
2022-12-29T13:06:03.895Z,81.88
2022-12-29T13:09:10.979Z,81.50
2022-12-29T13:11:58.422Z,81.72
2022-12-29T13:14:45.015Z,81.28
2022-12-29T13:17:27.748Z,80.75
2022-12-29T13:20:10.454Z,81.56
2022-12-29T13:22:48.949Z,81.55
2022-12-29T13:25:36.807Z,80.93
2022-12-29T13:28:14.641Z,81.41
